createdAt,value
2018-08-24T00:00:39.503Z,0.00
2018-08-24T00:01:39.184Z,0.00
2018-08-24T00:03:39.860Z,0.00
2018-08-24T00:04:39.145Z,0.00
2018-08-24T00:05:39.188Z,0.00
2018-08-24T00:06:39.697Z,0.00
2018-08-24T00:07:39.107Z,0.00
2018-08-24T00:08:39.103Z,0.00
2018-08-24T00:09:39.086Z,0.00
2018-08-24T00:10:39.076Z,0.00
2018-08-24T00:12:39.404Z,0.00
2018-08-24T00:13:39.047Z,0.00
2018-08-24T00:14:39.027Z,0.00
2018-08-24T00:15:39.021Z,0.00
2018-08-24T00:16:39.002Z,0.00
2018-08-24T00:17:38.993Z,0.00
2018-08-24T00:18:39.035Z,0.00
2018-08-24T00:21:38.944Z,0.00
2018-08-24T00:22:38.983Z,0.00
2018-08-24T00:24:38.957Z,0.00
2018-08-24T00:25:38.890Z,0.00
2018-08-24T00:26:38.883Z,0.00
2018-08-24T00:27:39.166Z,0.00
2018-08-24T00:28:38.861Z,0.00
2018-08-24T00:29:38.846Z,0.00
2018-08-24T00:30:38.887Z,0.00
2018-08-24T00:31:38.874Z,0.00
2018-08-24T00:33:39.099Z,0.00
2018-08-24T00:34:38.787Z,0.00
2018-08-24T00:36:38.811Z,0.00
2018-08-24T00:37:38.751Z,0.00
2018-08-24T00:39:39.027Z,0.00
2018-08-24T00:40:38.710Z,0.00
2018-08-24T00:42:38.794Z,0.00
2018-08-24T00:43:38.675Z,0.00
2018-08-24T00:44:38.665Z,0.00
2018-08-24T00:45:38.959Z,0.00
2018-08-24T00:46:39.045Z,0.00
2018-08-24T00:47:38.631Z,0.00
2018-08-24T00:51:38.728Z,0.00
2018-08-24T00:52:58.071Z,0.00
2018-08-24T00:53:38.555Z,0.00
2018-08-24T00:54:38.545Z,0.00
2018-08-24T00:55:38.531Z,0.00
2018-08-24T00:56:38.519Z,0.00
2018-08-24T00:57:38.561Z,0.00
2018-08-24T00:58:38.499Z,0.00
2018-08-24T00:59:38.785Z,0.00
2018-08-24T01:00:38.473Z,0.00
2018-08-24T01:01:38.460Z,0.00
2018-08-24T01:06:38.754Z,0.00
2018-08-24T01:07:38.449Z,0.00
2018-08-24T01:08:38.476Z,0.00
2018-08-24T01:09:38.468Z,0.00
2018-08-24T01:11:38.340Z,0.00
2018-08-24T01:12:38.753Z,0.00
2018-08-24T01:13:38.328Z,0.00
2018-08-24T01:14:38.308Z,0.00
2018-08-24T01:16:17.129Z,0.00
2018-08-24T01:16:38.279Z,0.00
2018-08-24T01:17:38.278Z,0.00
2018-08-24T01:18:38.567Z,0.00
2018-08-24T01:19:38.247Z,0.00
2018-08-24T01:25:38.174Z,0.00
2018-08-24T01:26:38.160Z,0.00
2018-08-24T01:27:38.202Z,0.00
2018-08-24T01:28:38.149Z,0.00
2018-08-24T01:29:38.132Z,0.00
2018-08-24T01:30:38.420Z,0.00
2018-08-24T01:31:38.101Z,0.00
2018-08-24T01:32:38.089Z,0.00
2018-08-24T01:39:38.058Z,0.00
2018-08-24T01:40:37.992Z,0.00
2018-08-24T01:42:38.068Z,0.00
2018-08-24T01:46:37.932Z,0.00
2018-08-24T01:48:37.894Z,0.00
2018-08-24T01:49:37.880Z,0.00
2018-08-24T01:50:38.173Z,0.00
2018-08-24T01:51:37.911Z,0.00
2018-08-24T01:52:37.855Z,0.00
2018-08-24T01:54:37.836Z,0.00
2018-08-24T01:55:37.808Z,0.00
2018-08-24T01:59:38.211Z,0.00
2018-08-24T02:00:37.750Z,0.00
2018-08-24T02:01:37.836Z,0.00
2018-08-24T02:02:37.773Z,0.00
2018-08-24T02:03:37.710Z,0.00
2018-08-24T02:04:37.703Z,0.00
2018-08-24T02:05:37.751Z,0.00
2018-08-24T02:06:38.075Z,0.00
2018-08-24T02:07:37.764Z,0.00
2018-08-24T02:08:37.659Z,0.00
2018-08-24T02:09:37.641Z,0.00
2018-08-24T02:13:37.942Z,0.00
2018-08-24T02:14:37.661Z,0.00
2018-08-24T02:15:37.569Z,0.00
2018-08-24T02:16:37.552Z,0.00
2018-08-24T02:17:37.546Z,0.00
2018-08-24T02:18:37.533Z,0.00
2018-08-24T02:19:37.564Z,0.00
2018-08-24T02:20:37.805Z,0.00
2018-08-24T02:21:37.495Z,0.00
2018-08-24T02:22:37.480Z,0.00
2018-08-24T02:23:37.467Z,0.00
2018-08-24T02:24:37.631Z,0.00
2018-08-24T02:25:37.499Z,0.00
2018-08-24T02:26:37.431Z,0.00
2018-08-24T02:27:37.713Z,0.00
2018-08-24T02:29:37.399Z,0.00
2018-08-24T02:30:37.384Z,0.00
2018-08-24T02:31:37.416Z,0.00
2018-08-24T02:32:37.376Z,0.00
2018-08-24T02:33:37.654Z,0.00
2018-08-24T02:34:37.338Z,0.00
2018-08-24T02:35:37.417Z,0.00
2018-08-24T02:36:37.311Z,0.00
2018-08-24T02:37:37.443Z,0.00
2018-08-24T02:38:37.282Z,0.00
2018-08-24T02:39:37.574Z,0.00
2018-08-24T02:40:37.254Z,0.00
2018-08-24T02:41:37.244Z,0.00
2018-08-24T02:42:37.231Z,0.00
2018-08-24T02:44:37.279Z,0.00
2018-08-24T02:45:37.199Z,0.00
2018-08-24T02:46:37.485Z,0.00
2018-08-24T02:47:37.170Z,0.00
2018-08-24T02:48:37.163Z,0.00
2018-08-24T02:49:37.142Z,0.00
2018-08-24T02:51:37.184Z,0.00
2018-08-24T02:52:37.204Z,0.00
2018-08-24T02:54:37.382Z,0.00
2018-08-24T02:55:37.109Z,0.00
2018-08-24T02:56:37.064Z,0.00
2018-08-24T02:58:37.087Z,0.00
2018-08-24T02:59:37.117Z,0.00
2018-08-24T03:00:37.316Z,0.00
2018-08-24T03:01:37.132Z,0.00
2018-08-24T03:02:36.978Z,0.00
2018-08-24T03:03:36.968Z,0.00
2018-08-24T03:04:37.009Z,0.00
2018-08-24T03:05:43.307Z,0.00
2018-08-24T03:06:37.235Z,0.00
2018-08-24T03:07:37.014Z,0.00
2018-08-24T03:13:36.845Z,0.00
2018-08-24T03:14:36.830Z,0.00
2018-08-24T03:15:36.821Z,0.00
2018-08-24T03:16:36.866Z,0.00
2018-08-24T03:18:36.889Z,0.00
2018-08-24T03:19:37.065Z,0.00
2018-08-24T03:20:36.765Z,0.00
2018-08-24T03:21:36.739Z,0.00
2018-08-24T03:22:36.776Z,0.00
2018-08-24T03:24:36.704Z,0.00
2018-08-24T03:25:36.690Z,0.00
2018-08-24T03:26:36.980Z,0.00
2018-08-24T03:27:36.674Z,0.00
2018-08-24T03:29:36.700Z,0.00
2018-08-24T03:30:36.626Z,0.00
2018-08-24T03:31:36.616Z,0.00
2018-08-24T03:32:36.613Z,0.00
2018-08-24T03:33:36.903Z,0.00
2018-08-24T03:34:36.674Z,0.00
2018-08-24T03:35:36.616Z,0.00
2018-08-24T03:36:36.544Z,0.00
2018-08-24T03:37:36.580Z,0.00
2018-08-24T03:38:36.530Z,0.00
2018-08-24T03:39:36.515Z,0.00
2018-08-24T03:41:36.832Z,0.00
2018-08-24T03:42:36.486Z,0.00
2018-08-24T03:43:36.466Z,0.00
2018-08-24T03:44:36.445Z,0.00
2018-08-24T03:45:36.492Z,0.00
2018-08-24T03:46:36.435Z,0.00
2018-08-24T03:48:36.747Z,4.00
2018-08-24T03:49:36.429Z,4.00
2018-08-24T03:50:36.381Z,4.00
2018-08-24T03:51:36.351Z,0.00
2018-08-24T03:52:36.340Z,4.00
2018-08-24T03:53:36.478Z,4.00
2018-08-24T03:54:36.371Z,4.00
2018-08-24T03:55:36.612Z,4.00
2018-08-24T03:56:36.287Z,8.00
2018-08-24T03:57:36.374Z,4.00
2018-08-24T03:58:36.280Z,8.00
2018-08-24T04:00:36.288Z,8.00
2018-08-24T04:01:36.333Z,8.00
2018-08-24T04:02:36.514Z,12.00
2018-08-24T04:03:36.198Z,12.00
2018-08-24T04:04:36.214Z,12.00
2018-08-24T04:06:36.210Z,16.00
2018-08-24T04:07:36.160Z,16.00
2018-08-24T04:08:36.441Z,20.00
2018-08-24T04:09:36.120Z,20.00
2018-08-24T04:10:36.139Z,24.00
2018-08-24T04:11:36.165Z,24.00
2018-08-24T04:12:36.153Z,24.00
2018-08-24T04:13:36.071Z,28.00
2018-08-24T04:14:36.458Z,28.00
2018-08-24T04:15:36.053Z,28.00
2018-08-24T04:16:36.073Z,32.00
2018-08-24T04:18:36.058Z,40.00
2018-08-24T04:19:36.293Z,44.00
2018-08-24T04:20:36.428Z,48.00
2018-08-24T04:21:35.975Z,60.00
2018-08-24T04:22:35.997Z,68.00
2018-08-24T04:23:36.037Z,72.00
2018-08-24T04:24:35.981Z,80.00
2018-08-24T04:25:35.969Z,84.00
2018-08-24T04:26:35.905Z,88.00
2018-08-24T04:30:41.370Z,96.00
2018-08-24T04:31:35.847Z,112.00
2018-08-24T04:33:35.809Z,80.00
2018-08-24T04:34:35.828Z,88.00
2018-08-24T04:35:35.780Z,88.00
2018-08-24T04:36:35.841Z,96.00
2018-08-24T04:37:35.814Z,108.00
2018-08-24T04:38:36.100Z,116.00
2018-08-24T04:39:35.884Z,132.00
2018-08-24T04:40:35.734Z,152.00
2018-08-24T04:43:37.229Z,152.00
2018-08-24T04:44:35.670Z,168.00
2018-08-24T04:45:36.043Z,164.00
2018-08-24T04:46:35.682Z,164.00
2018-08-24T04:47:35.834Z,176.00
2018-08-24T04:48:35.633Z,164.00
2018-08-24T04:50:35.611Z,180.00
2018-08-24T04:51:35.634Z,196.00
2018-08-24T04:52:36.144Z,216.00
2018-08-24T04:53:35.565Z,208.00
2018-08-24T04:54:35.627Z,212.00
2018-08-24T04:55:35.584Z,200.00
2018-08-24T04:56:35.839Z,176.00
2018-08-24T04:57:35.552Z,168.00
2018-08-24T04:58:35.495Z,220.00
2018-08-24T04:59:35.542Z,120.00
2018-08-24T05:00:36.053Z,116.00
2018-08-24T05:01:35.518Z,108.00
2018-08-24T05:02:35.503Z,120.00
2018-08-24T05:03:35.439Z,108.00
2018-08-24T05:04:35.517Z,128.00
2018-08-24T05:07:35.431Z,160.00
2018-08-24T05:08:35.359Z,220.00
2018-08-24T05:11:35.617Z,328.00
2018-08-24T05:13:35.360Z,384.00
2018-08-24T05:15:35.269Z,604.00
2018-08-24T05:16:35.271Z,588.00
2018-08-24T05:17:35.248Z,560.00
2018-08-24T05:18:35.592Z,488.00
2018-08-24T05:19:35.280Z,488.00
2018-08-24T05:20:36.179Z,516.00
2018-08-24T05:21:35.197Z,504.00
2018-08-24T05:22:35.211Z,548.00
2018-08-24T05:24:35.219Z,540.00
2018-08-24T05:26:35.441Z,432.00
2018-08-24T05:28:35.242Z,672.00
2018-08-24T05:29:35.160Z,704.00
2018-08-24T05:30:35.085Z,820.00
2018-08-24T05:32:35.418Z,968.00
2018-08-24T05:33:35.089Z,1016.00
2018-08-24T05:34:35.032Z,868.00
2018-08-24T05:35:35.075Z,1384.00
2018-08-24T05:36:35.059Z,1520.00
2018-08-24T05:37:34.989Z,1420.00
2018-08-24T05:38:35.341Z,1060.00
2018-08-24T05:39:34.983Z,1108.00
2018-08-24T05:40:34.965Z,1004.00
2018-08-24T05:41:35.005Z,1012.00
2018-08-24T05:43:34.917Z,728.00
2018-08-24T05:44:34.949Z,860.00
2018-08-24T05:45:35.188Z,648.00
2018-08-24T05:46:34.925Z,420.00
2018-08-24T05:47:34.876Z,540.00
2018-08-24T05:48:35.225Z,492.00
2018-08-24T05:50:34.892Z,276.00
2018-08-24T05:51:35.117Z,400.00
2018-08-24T05:57:35.038Z,1300.00
2018-08-24T05:58:34.742Z,1144.00
2018-08-24T05:59:34.863Z,1168.00
2018-08-24T06:00:34.699Z,1412.00
2018-08-24T06:01:34.780Z,1368.00
2018-08-24T06:02:34.724Z,1060.00
2018-08-24T06:03:34.664Z,1252.00
2018-08-24T06:04:34.948Z,1208.00
2018-08-24T06:06:34.621Z,1428.00
2018-08-24T06:07:34.622Z,1428.00
2018-08-24T06:08:34.643Z,1440.00
2018-08-24T06:09:34.637Z,1648.00
2018-08-24T06:10:34.877Z,1504.00
2018-08-24T06:11:34.565Z,1444.00
2018-08-24T06:12:34.555Z,1532.00
2018-08-24T06:13:34.587Z,1716.00
2018-08-24T06:14:34.669Z,1604.00
2018-08-24T06:15:34.503Z,1828.00
2018-08-24T06:16:34.810Z,1916.00
2018-08-24T06:18:34.467Z,1840.00
2018-08-24T06:19:34.550Z,2840.00
2018-08-24T06:20:34.602Z,2228.00
2018-08-24T06:21:34.514Z,2024.00
2018-08-24T06:22:34.714Z,2156.00
2018-08-24T06:26:34.439Z,2208.00
2018-08-24T06:27:34.698Z,2260.00
2018-08-24T06:28:34.634Z,2444.00
2018-08-24T06:31:34.519Z,2408.00
2018-08-24T06:32:34.347Z,2244.00
2018-08-24T06:33:34.331Z,2232.00
2018-08-24T06:41:34.179Z,2272.00
2018-08-24T06:43:34.137Z,2508.00
2018-08-24T06:44:34.175Z,2432.00
2018-08-24T06:49:34.127Z,2388.00
2018-08-24T06:50:34.180Z,2780.00
2018-08-24T06:51:34.238Z,3064.00
2018-08-24T06:52:34.074Z,2776.00
2018-08-24T06:54:34.056Z,2828.00
2018-08-24T06:55:34.380Z,2740.00
2018-08-24T06:56:34.020Z,3832.00
2018-08-24T06:57:33.961Z,3480.00
2018-08-24T06:58:34.080Z,3160.00
2018-08-24T06:59:33.986Z,4356.00
2018-08-24T07:00:33.981Z,5464.00
2018-08-24T07:01:33.909Z,4612.00
2018-08-24T07:02:34.244Z,4912.00
2018-08-24T07:03:33.933Z,4100.00
2018-08-24T07:04:33.913Z,3664.00
2018-08-24T07:05:33.870Z,4896.00
2018-08-24T07:06:33.833Z,4348.00
2018-08-24T07:07:33.832Z,4052.00
2018-08-24T07:08:34.173Z,3708.00
2018-08-24T07:11:33.837Z,3904.00
2018-08-24T07:12:33.776Z,3528.00
2018-08-24T07:13:35.320Z,3832.00
2018-08-24T07:14:33.785Z,3724.00
2018-08-24T07:15:33.728Z,3776.00
2018-08-24T07:16:33.734Z,3232.00
2018-08-24T07:18:33.690Z,3264.00
2018-08-24T07:19:34.025Z,4016.00
2018-08-24T07:20:34.052Z,3516.00
2018-08-24T07:21:35.476Z,3456.00
2018-08-24T07:22:34.545Z,3972.00
2018-08-24T07:24:35.016Z,4084.00
2018-08-24T07:25:34.113Z,3760.00
2018-08-24T07:26:34.210Z,3960.00
2018-08-24T07:28:34.014Z,3136.00
2018-08-24T07:29:33.904Z,3544.00
2018-08-24T07:32:35.088Z,4272.00
2018-08-24T07:34:33.612Z,3468.00
2018-08-24T07:35:33.494Z,3484.00
2018-08-24T07:36:33.473Z,3860.00
2018-08-24T07:37:33.541Z,3988.00
2018-08-24T07:38:33.795Z,3912.00
2018-08-24T07:39:33.444Z,5168.00
2018-08-24T07:40:33.422Z,3500.00
2018-08-24T07:42:33.395Z,4064.00
2018-08-24T07:43:33.442Z,3976.00
2018-08-24T07:44:33.678Z,4504.00
2018-08-24T07:45:33.369Z,4528.00
2018-08-24T07:46:33.342Z,4224.00
2018-08-24T07:48:33.331Z,3280.00
2018-08-24T07:49:33.388Z,2980.00
2018-08-24T07:50:33.610Z,3208.00
2018-08-24T07:51:33.280Z,3684.00
2018-08-24T07:52:33.270Z,2820.00
2018-08-24T07:53:33.260Z,3016.00
2018-08-24T07:57:33.511Z,2884.00
2018-08-24T07:58:33.201Z,2688.00
2018-08-24T07:59:33.228Z,3412.00
2018-08-24T08:00:33.176Z,3104.00
2018-08-24T08:02:33.575Z,3088.00
2018-08-24T08:03:33.146Z,3388.00
2018-08-24T08:05:33.574Z,3344.00
2018-08-24T08:07:33.080Z,3740.00
2018-08-24T08:08:33.209Z,3888.00
2018-08-24T08:09:33.128Z,5096.00
2018-08-24T08:10:33.061Z,4964.00
2018-08-24T08:12:33.389Z,4060.00
2018-08-24T08:13:33.012Z,3988.00
2018-08-24T08:14:33.053Z,4896.00
2018-08-24T08:15:33.229Z,4076.00
2018-08-24T08:17:32.970Z,4016.00
2018-08-24T08:18:32.994Z,5312.00
2018-08-24T08:19:33.239Z,4972.00
2018-08-24T08:20:33.027Z,4332.00
2018-08-24T08:21:32.923Z,4120.00
2018-08-24T08:22:33.013Z,4572.00
2018-08-24T08:25:33.196Z,5440.00
2018-08-24T08:26:32.905Z,4732.00
2018-08-24T08:27:32.846Z,5256.00
2018-08-24T08:28:32.877Z,8400.00
2018-08-24T08:30:32.813Z,7024.00
2018-08-24T08:31:33.118Z,5440.00
2018-08-24T08:32:32.881Z,4932.00
2018-08-24T08:33:32.823Z,5308.00
2018-08-24T08:34:32.782Z,4912.00
2018-08-24T08:35:32.763Z,4936.00
2018-08-24T08:36:32.747Z,4328.00
2018-08-24T08:37:33.044Z,5472.00
2018-08-24T08:38:32.803Z,5660.00
2018-08-24T08:39:32.702Z,4596.00
2018-08-24T08:40:32.693Z,4340.00
2018-08-24T08:41:32.689Z,5148.00
2018-08-24T08:42:32.674Z,5244.00
2018-08-24T08:43:32.991Z,5632.00
2018-08-24T08:44:32.862Z,5268.00
2018-08-24T08:45:32.653Z,4448.00
2018-08-24T08:46:32.622Z,5276.00
2018-08-24T08:47:32.613Z,4508.00
2018-08-24T08:52:33.476Z,6176.00
2018-08-24T08:53:32.568Z,6288.00
2018-08-24T08:54:32.531Z,4916.00
2018-08-24T08:55:32.519Z,6812.00
2018-08-24T08:56:32.645Z,5184.00
2018-08-24T08:57:32.858Z,6072.00
2018-08-24T09:00:32.477Z,5624.00
2018-08-24T09:01:33.327Z,6332.00
2018-08-24T09:02:32.813Z,5384.00
2018-08-24T09:04:32.779Z,6424.00
2018-08-24T09:05:32.409Z,4720.00
2018-08-24T09:07:32.385Z,5540.00
2018-08-24T09:08:32.429Z,4048.00
2018-08-24T09:09:32.370Z,4312.00
2018-08-24T09:10:32.417Z,3988.00
2018-08-24T09:11:32.636Z,4836.00
2018-08-24T09:12:32.335Z,2444.00
2018-08-24T09:13:32.317Z,3244.00
2018-08-24T09:14:32.426Z,3048.00
2018-08-24T09:15:32.299Z,2440.00
2018-08-24T09:16:32.336Z,2480.00
2018-08-24T09:18:32.976Z,2568.00
2018-08-24T09:19:32.259Z,2528.00
2018-08-24T09:21:32.229Z,1724.00
2018-08-24T09:22:32.293Z,2388.00
2018-08-24T09:23:32.341Z,2700.00
2018-08-24T09:24:32.496Z,2520.00
2018-08-24T09:25:38.456Z,3300.00
2018-08-24T09:26:32.253Z,3720.00
2018-08-24T09:27:32.473Z,4848.00
2018-08-24T09:28:33.911Z,4348.00
2018-08-24T09:29:32.156Z,3996.00
2018-08-24T09:30:32.441Z,3396.00
2018-08-24T09:31:32.114Z,3268.00
2018-08-24T09:32:32.230Z,3156.00
2018-08-24T09:33:32.107Z,3508.00
2018-08-24T09:34:32.130Z,2908.00
2018-08-24T09:35:32.356Z,2712.00
2018-08-24T09:36:32.351Z,2340.00
2018-08-24T09:37:32.043Z,2236.00
2018-08-24T09:38:32.023Z,2444.00
2018-08-24T09:39:32.028Z,2204.00
2018-08-24T09:40:32.046Z,3364.00
2018-08-24T09:42:32.272Z,4740.00
2018-08-24T09:43:31.965Z,5028.00
2018-08-24T09:44:31.959Z,4092.00
2018-08-24T09:45:31.936Z,6224.00
2018-08-24T09:50:32.226Z,5500.00
2018-08-24T09:51:31.892Z,5004.00
2018-08-24T09:52:31.911Z,5076.00
2018-08-24T09:57:32.099Z,4956.00
2018-08-24T09:58:31.804Z,5208.00
2018-08-24T10:00:32.105Z,4764.00
2018-08-24T10:01:32.137Z,4856.00
2018-08-24T10:02:31.902Z,6120.00
2018-08-24T10:03:32.105Z,4588.00
2018-08-24T10:04:32.052Z,5116.00
2018-08-24T10:05:31.820Z,4308.00
2018-08-24T10:06:31.763Z,4532.00
2018-08-24T10:07:31.693Z,3900.00
2018-08-24T10:08:31.664Z,4456.00
2018-08-24T10:11:33.285Z,4712.00
2018-08-24T10:15:31.592Z,4924.00
2018-08-24T10:17:31.566Z,5696.00
2018-08-24T10:19:31.588Z,6440.00
2018-08-24T10:20:32.717Z,5888.00
2018-08-24T10:21:31.525Z,6120.00
2018-08-24T10:22:31.517Z,6280.00
2018-08-24T10:23:31.674Z,5380.00
2018-08-24T10:24:31.788Z,6008.00
2018-08-24T10:25:31.521Z,4080.00
2018-08-24T10:28:31.729Z,4420.00
2018-08-24T10:29:31.478Z,4384.00
2018-08-24T10:31:31.521Z,4732.00
2018-08-24T10:32:31.387Z,3612.00
2018-08-24T10:34:31.379Z,3760.00
2018-08-24T10:37:31.664Z,2680.00
2018-08-24T10:39:31.361Z,2352.00
2018-08-24T10:40:31.430Z,3356.00
2018-08-24T10:41:31.791Z,5752.00
2018-08-24T10:42:31.587Z,3320.00
2018-08-24T10:43:31.323Z,3884.00
2018-08-24T10:44:31.280Z,3104.00
2018-08-24T10:45:31.299Z,3840.00
2018-08-24T10:46:44.560Z,1948.00
2018-08-24T10:47:31.525Z,1964.00
2018-08-24T10:52:31.167Z,2008.00
2018-08-24T10:56:34.195Z,3076.00
2018-08-24T10:57:31.308Z,2692.00
2018-08-24T10:58:31.128Z,2992.00
2018-08-24T10:59:31.079Z,2364.00
2018-08-24T11:00:31.165Z,2436.00
2018-08-24T11:01:31.405Z,3660.00
2018-08-24T11:03:31.873Z,3356.00
2018-08-24T11:04:31.021Z,3068.00
2018-08-24T11:05:31.200Z,4956.00
2018-08-24T11:07:31.400Z,4152.00
2018-08-24T11:08:30.980Z,3832.00
2018-08-24T11:10:30.950Z,5912.00
2018-08-24T11:11:30.984Z,4284.00
2018-08-24T11:13:30.980Z,3488.00
2018-08-24T11:14:31.577Z,5964.00
2018-08-24T11:19:30.999Z,5184.00
2018-08-24T11:22:30.792Z,2200.00
2018-08-24T11:23:31.152Z,1828.00
2018-08-24T11:28:31.706Z,1928.00
2018-08-24T11:30:30.764Z,2248.00
2018-08-24T11:31:30.680Z,2164.00
2018-08-24T11:32:30.661Z,1676.00
2018-08-24T11:33:30.649Z,2156.00
2018-08-24T11:34:30.975Z,1828.00
2018-08-24T11:35:30.639Z,1700.00
2018-08-24T11:36:31.805Z,1488.00
2018-08-24T11:37:30.669Z,2104.00
2018-08-24T11:38:30.605Z,1832.00
2018-08-24T11:39:30.674Z,1980.00
2018-08-24T11:40:30.567Z,2056.00
2018-08-24T11:42:30.995Z,2684.00
2018-08-24T11:43:30.537Z,2624.00
2018-08-24T11:45:30.505Z,1804.00
2018-08-24T11:46:30.485Z,1696.00
2018-08-24T11:47:30.483Z,1936.00
2018-08-24T11:48:30.800Z,2180.00
2018-08-24T11:50:30.432Z,2900.00
2018-08-24T11:54:30.788Z,7080.00
2018-08-24T11:55:30.372Z,5036.00
2018-08-24T11:56:30.348Z,5656.00
2018-08-24T11:57:30.339Z,4396.00
2018-08-24T11:59:30.340Z,4212.00
2018-08-24T12:00:30.653Z,4248.00
2018-08-24T12:01:30.298Z,4088.00
2018-08-24T12:03:30.337Z,4340.00
2018-08-24T12:04:30.286Z,3856.00
2018-08-24T12:05:30.284Z,5192.00
2018-08-24T12:06:30.578Z,5188.00
2018-08-24T12:07:30.240Z,5192.00
2018-08-24T12:08:30.296Z,480.00
2018-08-24T12:10:30.180Z,5544.00
2018-08-24T12:11:30.262Z,4784.00
2018-08-24T12:13:32.083Z,3744.00
2018-08-24T12:15:30.117Z,5304.00
2018-08-24T12:16:30.102Z,0.00
2018-08-24T12:17:30.672Z,20192.00
2018-08-24T12:18:30.201Z,6208.00
2018-08-24T12:19:30.429Z,1504.00
2018-08-24T12:20:30.178Z,3948.00
2018-08-24T12:21:30.132Z,26656.00
2018-08-24T12:25:30.380Z,6052.00
2018-08-24T12:26:30.084Z,5456.00
2018-08-24T12:27:29.992Z,6300.00
2018-08-24T12:28:30.039Z,17536.00
2018-08-24T12:29:29.965Z,9016.00
2018-08-24T12:30:29.995Z,38784.00
2018-08-24T12:32:30.295Z,9876.00
2018-08-24T12:33:29.924Z,9692.00
2018-08-24T12:34:29.940Z,6392.00
2018-08-24T12:35:29.911Z,8332.00
2018-08-24T12:36:30.440Z,6860.00
2018-08-24T12:37:29.933Z,4348.00
2018-08-24T12:43:29.867Z,2172.00
2018-08-24T12:45:30.154Z,3464.00
2018-08-24T12:46:29.870Z,3252.00
2018-08-24T12:47:29.788Z,2280.00
2018-08-24T12:48:29.776Z,1868.00
2018-08-24T12:49:29.913Z,1888.00
2018-08-24T12:50:29.754Z,2048.00
2018-08-24T12:51:29.839Z,2844.00
2018-08-24T12:52:30.047Z,7672.00
2018-08-24T12:53:29.736Z,4908.00
2018-08-24T12:54:29.734Z,7092.00
2018-08-24T12:55:29.811Z,45856.00
2018-08-24T12:57:29.832Z,41728.00
2018-08-24T12:58:30.427Z,22176.00
2018-08-24T13:01:29.857Z,6904.00
2018-08-24T13:02:30.300Z,5380.00
2018-08-24T13:05:30.051Z,3608.00
2018-08-24T13:06:29.592Z,3368.00
2018-08-24T13:07:29.617Z,3380.00
2018-08-24T13:08:29.720Z,3752.00
2018-08-24T13:09:29.581Z,2724.00
2018-08-24T13:10:29.803Z,8536.00
2018-08-24T13:11:29.838Z,5204.00
2018-08-24T13:12:29.845Z,4292.00
2018-08-24T13:14:29.537Z,3596.00
2018-08-24T13:15:29.504Z,4288.00
2018-08-24T13:16:29.524Z,4080.00
2018-08-24T13:17:29.595Z,7860.00
2018-08-24T13:18:29.469Z,4212.00
2018-08-24T13:19:29.822Z,3544.00
2018-08-24T13:20:29.462Z,3616.00
2018-08-24T13:21:29.611Z,4736.00
2018-08-24T13:22:29.425Z,5320.00
2018-08-24T13:23:29.491Z,11748.00
2018-08-24T13:24:29.435Z,5016.00
2018-08-24T13:25:29.769Z,8660.00
2018-08-24T13:26:29.390Z,57024.00
2018-08-24T13:27:34.489Z,4564.00
2018-08-24T13:28:29.358Z,4488.00
2018-08-24T13:29:29.556Z,4540.00
2018-08-24T13:30:29.603Z,6660.00
2018-08-24T13:31:29.688Z,4764.00
2018-08-24T13:34:29.366Z,4896.00
2018-08-24T13:35:29.509Z,4880.00
2018-08-24T13:36:29.462Z,4704.00
2018-08-24T13:38:29.648Z,4984.00
2018-08-24T13:39:29.321Z,4448.00
2018-08-24T13:47:29.293Z,13184.00
2018-08-24T13:49:29.506Z,6112.00
2018-08-24T13:50:29.172Z,14880.00
2018-08-24T13:53:29.292Z,16096.00
2018-08-24T13:54:29.276Z,13440.00
2018-08-24T13:55:29.492Z,17088.00
2018-08-24T13:56:29.344Z,16704.00
2018-08-24T13:57:29.170Z,14752.00
2018-08-24T13:58:29.240Z,17920.00
2018-08-24T13:59:29.415Z,8936.00
2018-08-24T14:00:29.097Z,4272.00
2018-08-24T14:01:29.159Z,11300.00
2018-08-24T14:02:29.349Z,16800.00
2018-08-24T14:03:29.070Z,3816.00
2018-08-24T14:04:29.065Z,5356.00
2018-08-24T14:06:29.049Z,8024.00
2018-08-24T14:07:29.052Z,19904.00
2018-08-24T14:08:29.378Z,21600.00
2018-08-24T14:10:29.028Z,37120.00
2018-08-24T14:11:29.102Z,43264.00
2018-08-24T14:12:29.132Z,3688.00
2018-08-24T14:13:29.157Z,3764.00
2018-08-24T14:14:29.307Z,29888.00
2018-08-24T14:15:29.100Z,18624.00
2018-08-24T14:16:29.058Z,13088.00
2018-08-24T14:17:29.094Z,13888.00
2018-08-24T14:18:29.005Z,9852.00
2018-08-24T14:19:29.109Z,11584.00
2018-08-24T14:20:29.044Z,12960.00
2018-08-24T14:21:29.352Z,10408.00
2018-08-24T14:22:28.992Z,11328.00
2018-08-24T14:23:29.038Z,5916.00
2018-08-24T14:24:28.936Z,16512.00
2018-08-24T14:26:28.948Z,34848.00
2018-08-24T14:27:28.938Z,14784.00
2018-08-24T14:28:29.565Z,52096.00
2018-08-24T14:29:30.180Z,32672.00
2018-08-24T14:30:29.084Z,5704.00
2018-08-24T14:31:28.937Z,4716.00
2018-08-24T14:32:28.866Z,16416.00
2018-08-24T14:34:28.845Z,14528.00
2018-08-24T14:35:29.238Z,13792.00
2018-08-24T14:37:28.853Z,13216.00
2018-08-24T14:38:28.903Z,14464.00
2018-08-24T14:39:29.095Z,14112.00
2018-08-24T14:40:28.876Z,6944.00
2018-08-24T14:41:29.164Z,15616.00
2018-08-24T14:42:29.176Z,6304.00
2018-08-24T14:44:29.085Z,9324.00
2018-08-24T14:45:28.777Z,36000.00
2018-08-24T14:46:28.814Z,6552.00
2018-08-24T14:48:29.152Z,27232.00
2018-08-24T14:49:29.170Z,7532.00
2018-08-24T14:50:28.806Z,6560.00
2018-08-24T14:51:28.785Z,7208.00
2018-08-24T14:52:28.736Z,6644.00
2018-08-24T14:53:28.728Z,7236.00
2018-08-24T14:54:28.786Z,16896.00
2018-08-24T14:56:29.033Z,6968.00
2018-08-24T14:57:28.791Z,7676.00
2018-08-24T14:58:28.768Z,6996.00
2018-08-24T14:59:28.675Z,5680.00
2018-08-24T15:00:28.761Z,4540.00
2018-08-24T15:01:28.646Z,3576.00
2018-08-24T15:02:29.104Z,2968.00
2018-08-24T15:04:28.663Z,4124.00
2018-08-24T15:05:28.622Z,5420.00
2018-08-24T15:06:28.660Z,5100.00
2018-08-24T15:08:28.942Z,4256.00
2018-08-24T15:09:28.696Z,3660.00
2018-08-24T15:10:28.581Z,6288.00
2018-08-24T15:11:28.607Z,5608.00
2018-08-24T15:12:28.763Z,7424.00
2018-08-24T15:13:28.634Z,6528.00
2018-08-24T15:15:28.935Z,12884.00
2018-08-24T15:16:28.715Z,30368.00
2018-08-24T15:18:28.593Z,17120.00
2018-08-24T15:19:30.169Z,24224.00
2018-08-24T15:20:28.560Z,17696.00
2018-08-24T15:21:29.872Z,15040.00
2018-08-24T15:22:28.477Z,12992.00
2018-08-24T15:23:28.441Z,11840.00
2018-08-24T15:24:28.498Z,10372.00
2018-08-24T15:25:28.589Z,9776.00
2018-08-24T15:26:28.464Z,9296.00
2018-08-24T15:27:28.731Z,9556.00
2018-08-24T15:29:28.505Z,9100.00
2018-08-24T15:32:28.411Z,9344.00
2018-08-24T15:33:28.715Z,8940.00
2018-08-24T15:34:28.337Z,8324.00
2018-08-24T15:35:28.345Z,8272.00
2018-08-24T15:36:28.461Z,8380.00
2018-08-24T15:37:28.330Z,7528.00
2018-08-24T15:38:28.443Z,7444.00
2018-08-24T15:39:28.582Z,7040.00
2018-08-24T15:40:28.276Z,6860.00
2018-08-24T15:41:28.320Z,6560.00
2018-08-24T15:42:34.522Z,7244.00
2018-08-24T15:43:28.346Z,7140.00
2018-08-24T15:44:28.597Z,7600.00
2018-08-24T15:45:28.545Z,7732.00
2018-08-24T15:46:28.417Z,6064.00
2018-08-24T15:47:28.276Z,6416.00
2018-08-24T15:49:28.244Z,7004.00
2018-08-24T15:50:29.032Z,5644.00
2018-08-24T15:51:28.311Z,5936.00
2018-08-24T15:52:28.479Z,5700.00
2018-08-24T15:53:28.199Z,4612.00
2018-08-24T15:54:28.180Z,5264.00
2018-08-24T15:56:28.177Z,4300.00
2018-08-24T15:57:28.182Z,5044.00
2018-08-24T15:58:28.102Z,5136.00
2018-08-24T15:59:28.410Z,4468.00
2018-08-24T16:00:28.093Z,5344.00
2018-08-24T16:01:28.091Z,5780.00
2018-08-24T16:05:28.550Z,4180.00
2018-08-24T16:06:28.193Z,4516.00
2018-08-24T16:07:28.033Z,6268.00
2018-08-24T16:08:28.010Z,6660.00
2018-08-24T16:09:28.046Z,4944.00
2018-08-24T16:10:27.976Z,5032.00
2018-08-24T16:11:28.020Z,3348.00
2018-08-24T16:12:28.253Z,4156.00
2018-08-24T16:13:27.966Z,4312.00
2018-08-24T16:14:27.938Z,4188.00
2018-08-24T16:16:27.940Z,3964.00
2018-08-24T16:17:27.967Z,4184.00
2018-08-24T16:18:28.388Z,4572.00
2018-08-24T16:19:28.001Z,3564.00
2018-08-24T16:20:27.905Z,3792.00
2018-08-24T16:21:27.915Z,3396.00
2018-08-24T16:22:27.873Z,3696.00
2018-08-24T16:24:28.306Z,3524.00
2018-08-24T16:25:27.955Z,3628.00